createdAt,value
2022-11-29T00:01:01.838Z,3.90
2022-11-29T00:03:29.210Z,3.85
2022-11-29T00:05:56.133Z,4.13
2022-11-29T00:08:24.202Z,3.97
2022-11-29T00:10:51.073Z,3.55
2022-11-29T00:13:18.007Z,3.35
2022-11-29T00:15:44.595Z,3.08
2022-11-29T00:18:11.153Z,3.60
2022-11-29T00:20:39.252Z,3.30
2022-11-29T00:23:05.930Z,2.60
2022-11-29T00:25:32.558Z,4.35
2022-11-29T00:27:59.068Z,4.35
2022-11-29T00:30:25.701Z,4.38
2022-11-29T00:32:52.313Z,3.75
2022-11-29T00:35:18.900Z,4.75
2022-11-29T00:37:45.428Z,3.78
2022-11-29T00:40:12.289Z,4.38
2022-11-29T00:42:38.830Z,3.47
2022-11-29T00:45:05.820Z,3.65
2022-11-29T00:47:32.400Z,3.30
2022-11-29T00:49:58.933Z,3.60
2022-11-29T00:52:25.457Z,3.88
2022-11-29T00:54:52.015Z,3.28
2022-11-29T00:57:18.571Z,3.28
2022-11-29T00:59:45.120Z,3.33
2022-11-29T01:02:11.744Z,4.10
2022-11-29T01:04:38.496Z,3.45
2022-11-29T01:07:05.134Z,3.70
2022-11-29T01:09:31.694Z,3.38
2022-11-29T01:11:58.274Z,3.60
2022-11-29T01:14:24.801Z,3.45
2022-11-29T01:16:51.417Z,3.70
2022-11-29T01:19:18.038Z,4.00
2022-11-29T01:21:44.600Z,3.53
2022-11-29T01:24:11.253Z,3.80
2022-11-29T01:26:37.941Z,4.22
2022-11-29T01:29:04.479Z,3.90
2022-11-29T01:31:36.027Z,3.53
2022-11-29T01:34:04.112Z,3.70
2022-11-29T01:36:30.893Z,2.95
2022-11-29T01:39:00.604Z,3.35
2022-11-29T01:41:30.306Z,3.55
2022-11-29T01:44:01.665Z,3.10
2022-11-29T01:46:30.669Z,2.63
2022-11-29T01:49:09.874Z,3.05
2022-11-29T01:51:41.477Z,3.42
2022-11-29T01:54:09.772Z,3.35
2022-11-29T01:56:37.938Z,3.38
2022-11-29T01:59:08.825Z,3.10
2022-11-29T02:01:36.665Z,3.87
2022-11-29T02:04:04.021Z,3.00
2022-11-29T02:06:30.750Z,3.38
2022-11-29T02:08:57.441Z,3.35
2022-11-29T02:11:51.608Z,3.28
2022-11-29T02:14:33.288Z,3.33
2022-11-29T02:17:21.208Z,3.47
2022-11-29T02:20:15.508Z,3.10
2022-11-29T02:22:58.015Z,2.53
2022-11-29T02:25:43.171Z,2.67
2022-11-29T02:29:00.453Z,3.20
2022-11-29T02:32:05.514Z,2.97
2022-11-29T02:34:47.373Z,2.97
2022-11-29T02:37:51.561Z,2.97
2022-11-29T02:40:41.105Z,3.10
2022-11-29T02:43:16.545Z,2.40
2022-11-29T02:46:18.625Z,3.13
2022-11-29T02:51:30.351Z,2.55
2022-11-29T02:54:51.736Z,2.28
2022-11-29T02:57:20.864Z,2.70
2022-11-29T03:00:15.709Z,2.80
2022-11-29T03:02:51.417Z,2.33
2022-11-29T03:05:51.754Z,1.88
2022-11-29T03:08:27.728Z,2.58
2022-11-29T03:11:09.558Z,2.10
2022-11-29T03:16:49.296Z,1.70
2022-11-29T03:19:47.284Z,1.70
2022-11-29T03:22:43.154Z,1.42
2022-11-29T03:25:22.570Z,1.58
2022-11-29T03:28:01.325Z,2.05
2022-11-29T03:30:32.537Z,1.88
2022-11-29T03:33:24.821Z,1.98
2022-11-29T03:36:07.486Z,2.17
2022-11-29T03:38:37.177Z,2.10
2022-11-29T03:41:09.408Z,2.40
2022-11-29T03:43:57.343Z,1.75
2022-11-29T03:46:47.827Z,1.35
2022-11-29T03:49:25.468Z,1.73
2022-11-29T03:51:55.095Z,1.40
2022-11-29T03:54:29.619Z,1.20
2022-11-29T03:56:56.543Z,0.77
2022-11-29T03:59:32.257Z,1.13
2022-11-29T04:02:36.762Z,0.82
2022-11-29T04:05:48.347Z,0.90
2022-11-29T04:08:27.112Z,0.95
2022-11-29T04:11:31.178Z,0.77
2022-11-29T04:14:28.886Z,0.82
2022-11-29T04:17:31.236Z,0.90
2022-11-29T04:20:19.170Z,0.68
2022-11-29T04:23:10.671Z,0.63
2022-11-29T04:26:05.363Z,0.90
2022-11-29T04:28:44.107Z,0.80
2022-11-29T04:31:38.247Z,0.60
2022-11-29T04:34:26.385Z,0.82
2022-11-29T04:37:26.791Z,0.93
2022-11-29T04:40:01.992Z,0.82
2022-11-29T04:42:36.808Z,0.80
2022-11-29T04:45:35.449Z,0.77
2022-11-29T04:48:04.991Z,0.93
2022-11-29T04:50:37.447Z,0.98
2022-11-29T04:53:13.080Z,0.90
2022-11-29T04:56:08.249Z,1.02
2022-11-29T04:58:46.179Z,0.98
2022-11-29T05:01:34.106Z,1.20
2022-11-29T05:04:28.097Z,0.82
2022-11-29T05:07:08.737Z,0.80
2022-11-29T05:10:00.919Z,1.00
2022-11-29T05:12:30.491Z,1.00
2022-11-29T05:15:21.263Z,1.20
2022-11-29T05:18:04.059Z,1.10
2022-11-29T05:21:00.484Z,1.02
2022-11-29T05:23:59.263Z,0.90
2022-11-29T05:26:37.461Z,1.33
2022-11-29T05:29:16.475Z,1.50
2022-11-29T05:32:28.542Z,1.10
2022-11-29T05:35:01.006Z,1.17
2022-11-29T05:37:39.158Z,0.88
2022-11-29T05:40:38.399Z,1.10
2022-11-29T05:43:11.267Z,1.08
2022-11-29T05:45:55.885Z,1.30
2022-11-29T05:48:45.384Z,1.15
2022-11-29T05:51:50.717Z,1.40
2022-11-29T05:54:52.774Z,1.27
2022-11-29T05:57:29.186Z,1.20
2022-11-29T06:00:01.932Z,1.40
2022-11-29T06:02:53.400Z,1.30
2022-11-29T06:05:24.796Z,1.35
2022-11-29T06:08:03.569Z,1.25
2022-11-29T06:10:35.080Z,1.30
2022-11-29T06:13:21.970Z,0.82
2022-11-29T06:16:01.301Z,1.20
2022-11-29T06:18:52.465Z,1.30
2022-11-29T06:21:45.200Z,1.50
2022-11-29T06:24:56.263Z,1.67
2022-11-29T06:27:50.666Z,1.70
2022-11-29T06:30:23.080Z,1.80
2022-11-29T06:33:17.994Z,1.73
2022-11-29T06:35:48.245Z,1.35
2022-11-29T06:38:27.410Z,1.35
2022-11-29T06:41:01.367Z,1.52
2022-11-29T06:43:28.950Z,1.05
2022-11-29T06:46:04.284Z,1.25
2022-11-29T06:48:38.471Z,1.40
2022-11-29T06:51:49.595Z,1.00
2022-11-29T06:54:31.974Z,1.33
2022-11-29T06:57:01.153Z,0.93
2022-11-29T07:00:01.744Z,1.10
2022-11-29T07:02:43.399Z,1.30
2022-11-29T07:05:21.323Z,0.95
2022-11-29T07:07:48.806Z,1.10
2022-11-29T07:10:17.726Z,1.30
2022-11-29T07:12:46.331Z,1.27
2022-11-29T07:15:19.220Z,1.42
2022-11-29T07:18:13.732Z,1.23
2022-11-29T07:21:15.663Z,1.27
2022-11-29T07:24:04.085Z,1.58
2022-11-29T07:26:43.762Z,1.30
2022-11-29T07:29:40.667Z,1.58
2022-11-29T07:32:25.669Z,1.10
2022-11-29T07:35:03.997Z,1.35
2022-11-29T07:37:48.559Z,1.42
2022-11-29T07:40:24.459Z,1.40
2022-11-29T07:42:54.023Z,1.20
2022-11-29T07:45:39.934Z,1.40
2022-11-29T07:48:06.989Z,1.00
2022-11-29T07:50:35.325Z,1.27
2022-11-29T07:53:01.974Z,1.48
2022-11-29T07:55:29.661Z,1.00
2022-11-29T07:57:56.262Z,0.98
2022-11-29T08:00:23.084Z,1.60
2022-11-29T08:02:50.454Z,1.10
2022-11-29T08:05:17.344Z,0.80
2022-11-29T08:07:44.215Z,1.10
2022-11-29T08:10:16.705Z,1.10
2022-11-29T08:12:45.750Z,1.13
2022-11-29T08:15:12.929Z,1.35
2022-11-29T08:17:39.697Z,1.00
2022-11-29T08:20:07.748Z,1.15
2022-11-29T08:22:34.796Z,1.02
2022-11-29T08:25:01.950Z,0.95
2022-11-29T08:27:28.841Z,0.95
2022-11-29T08:29:55.382Z,1.48
2022-11-29T08:32:21.968Z,1.05
2022-11-29T08:34:48.656Z,1.20
2022-11-29T08:37:15.216Z,1.20
2022-11-29T08:39:41.793Z,1.27
2022-11-29T08:42:08.365Z,1.20
2022-11-29T08:44:35.006Z,1.73
2022-11-29T08:47:20.173Z,1.42
2022-11-29T08:50:01.649Z,1.50
2022-11-29T08:52:48.359Z,1.48
2022-11-29T08:55:15.565Z,1.23
2022-11-29T08:57:42.201Z,1.20
2022-11-29T09:00:10.438Z,1.50
2022-11-29T09:02:37.521Z,1.58
2022-11-29T09:05:06.005Z,1.75
2022-11-29T09:07:32.751Z,1.27
2022-11-29T09:10:00.950Z,1.25
2022-11-29T09:12:27.530Z,1.50
2022-11-29T09:14:54.092Z,1.60
2022-11-29T09:17:20.672Z,1.70
2022-11-29T09:19:47.280Z,1.35
2022-11-29T09:22:13.851Z,1.42
2022-11-29T09:24:40.473Z,1.48
2022-11-29T09:27:07.045Z,1.55
2022-11-29T09:29:33.612Z,1.60
2022-11-29T09:32:00.243Z,1.70
2022-11-29T09:34:26.818Z,1.35
2022-11-29T09:36:53.396Z,1.83
2022-11-29T09:39:20.002Z,1.17
2022-11-29T09:42:04.861Z,1.17
2022-11-29T09:44:40.375Z,1.30
2022-11-29T09:47:19.010Z,1.40
2022-11-29T09:49:52.316Z,1.38
2022-11-29T09:52:50.481Z,1.35
2022-11-29T09:55:32.240Z,2.55
2022-11-29T09:58:01.151Z,1.83
2022-11-29T10:00:29.514Z,2.20
2022-11-29T10:03:09.300Z,1.50
2022-11-29T10:05:42.970Z,1.67
2022-11-29T10:08:23.867Z,1.30
2022-11-29T10:10:57.274Z,1.40
2022-11-29T10:13:35.591Z,1.23
2022-11-29T10:16:20.845Z,1.58
2022-11-29T10:18:54.432Z,2.15
2022-11-29T10:21:25.919Z,2.08
2022-11-29T10:23:56.345Z,1.70
2022-11-29T10:26:25.923Z,1.23
2022-11-29T10:28:57.536Z,1.42
2022-11-29T10:31:31.923Z,1.45
2022-11-29T10:34:02.552Z,1.88
2022-11-29T10:36:55.099Z,1.63
2022-11-29T10:39:39.717Z,1.40
2022-11-29T10:42:35.126Z,1.67
2022-11-29T10:45:02.399Z,1.50
2022-11-29T10:47:29.281Z,1.48
2022-11-29T10:49:56.818Z,1.55
2022-11-29T10:52:24.103Z,1.75
2022-11-29T10:54:58.580Z,1.80
2022-11-29T10:57:25.560Z,1.40
2022-11-29T10:59:59.635Z,1.52
2022-11-29T11:02:27.710Z,1.50
2022-11-29T11:04:54.539Z,1.80
2022-11-29T11:07:25.755Z,1.70
2022-11-29T11:09:56.769Z,1.30
2022-11-29T11:12:30.086Z,1.45
2022-11-29T11:15:15.997Z,1.20
2022-11-29T11:17:58.847Z,1.30
2022-11-29T11:20:28.867Z,1.30
2022-11-29T11:23:02.511Z,1.48
2022-11-29T11:25:38.959Z,1.30
2022-11-29T11:28:21.232Z,1.40
2022-11-29T11:30:55.706Z,1.20
2022-11-29T11:33:27.004Z,1.30
2022-11-29T11:36:11.957Z,1.75
2022-11-29T11:38:42.066Z,1.50
2022-11-29T11:41:46.846Z,1.27
2022-11-29T11:44:50.945Z,1.15
2022-11-29T11:47:24.413Z,1.00
2022-11-29T11:50:00.163Z,0.90
2022-11-29T11:52:28.816Z,1.05
2022-11-29T11:54:59.115Z,0.90
2022-11-29T11:57:26.723Z,0.65
2022-11-29T12:00:00.816Z,0.88
2022-11-29T12:02:40.557Z,1.10
2022-11-29T12:05:16.030Z,0.50
2022-11-29T12:10:37.695Z,0.90
2022-11-29T12:13:04.948Z,1.27
2022-11-29T12:15:39.948Z,0.82
2022-11-29T12:18:37.975Z,1.15
2022-11-29T12:21:14.183Z,1.40
2022-11-29T12:24:10.499Z,1.40
2022-11-29T12:29:30.043Z,1.38
2022-11-29T12:32:30.195Z,1.27
2022-11-29T12:35:23.589Z,1.27
2022-11-29T12:37:59.762Z,1.20
2022-11-29T12:40:32.635Z,1.40
2022-11-29T12:43:28.877Z,1.20
2022-11-29T12:46:01.316Z,0.90
2022-11-29T12:48:48.172Z,1.40
2022-11-29T12:51:29.924Z,1.02
2022-11-29T12:56:48.220Z,0.73
2022-11-29T12:59:22.585Z,0.80
2022-11-29T13:02:26.927Z,0.90
2022-11-29T13:04:59.789Z,0.98
2022-11-29T13:07:31.422Z,0.70
2022-11-29T13:10:17.653Z,0.65
2022-11-29T13:12:53.235Z,0.60
2022-11-29T13:15:23.647Z,0.65
2022-11-29T13:17:58.731Z,0.50
2022-11-29T13:20:30.285Z,0.80
2022-11-29T13:23:08.920Z,0.70
2022-11-29T13:25:42.413Z,0.50
2022-11-29T13:28:24.079Z,0.60
2022-11-29T13:30:52.450Z,0.50
2022-11-29T13:33:32.276Z,0.47
2022-11-29T13:36:24.683Z,0.50
2022-11-29T13:39:03.371Z,0.43
2022-11-29T13:41:54.885Z,0.70
2022-11-29T13:44:38.568Z,0.55
2022-11-29T13:47:13.873Z,0.40
2022-11-29T13:49:55.898Z,0.50
2022-11-29T13:53:03.187Z,0.70
2022-11-29T13:55:31.261Z,0.60
2022-11-29T13:58:18.292Z,1.00
2022-11-29T14:00:45.209Z,0.60
2022-11-29T14:03:27.744Z,1.08
2022-11-29T14:06:03.370Z,0.60
2022-11-29T14:09:10.303Z,0.90
2022-11-29T14:11:37.010Z,0.80
2022-11-29T14:14:15.701Z,0.70
2022-11-29T14:16:42.246Z,0.80
2022-11-29T14:19:08.728Z,0.80
2022-11-29T14:22:03.269Z,0.93
2022-11-29T14:24:32.907Z,0.60
2022-11-29T14:27:14.496Z,0.65
2022-11-29T14:29:50.203Z,0.60
2022-11-29T14:32:26.831Z,0.90
2022-11-29T14:35:11.647Z,0.70
2022-11-29T14:38:03.324Z,0.90
2022-11-29T14:41:11.890Z,1.05
2022-11-29T14:43:41.546Z,1.35
2022-11-29T14:46:13.871Z,0.63
2022-11-29T14:48:58.707Z,0.55
2022-11-29T14:51:28.709Z,0.82
2022-11-29T14:54:19.511Z,1.27
2022-11-29T14:56:47.374Z,0.90
2022-11-29T14:59:39.019Z,1.17
2022-11-29T15:02:25.395Z,1.92
2022-11-29T15:04:55.756Z,1.40
2022-11-29T15:07:29.864Z,1.30
2022-11-29T15:10:01.246Z,1.30
2022-11-29T15:12:35.182Z,1.33
2022-11-29T15:15:16.000Z,1.00
2022-11-29T15:18:02.564Z,1.88
2022-11-29T15:20:38.152Z,1.30
2022-11-29T15:23:09.705Z,1.17
2022-11-29T15:25:36.525Z,2.17
2022-11-29T15:28:05.903Z,1.05
2022-11-29T15:30:34.143Z,1.73
2022-11-29T15:33:04.046Z,1.45
2022-11-29T15:35:32.791Z,1.52
2022-11-29T15:37:59.460Z,1.60
2022-11-29T15:40:35.143Z,1.67
2022-11-29T15:43:16.889Z,1.70
2022-11-29T15:45:55.574Z,1.00
2022-11-29T15:48:22.240Z,1.38
2022-11-29T15:50:58.935Z,1.00
2022-11-29T15:53:31.356Z,1.83
2022-11-29T15:56:00.170Z,1.40
2022-11-29T15:58:30.931Z,2.13
2022-11-29T16:01:00.363Z,1.75
2022-11-29T16:03:30.650Z,1.90
2022-11-29T16:06:08.330Z,2.17
2022-11-29T16:08:41.775Z,2.40
2022-11-29T16:11:15.883Z,2.63
2022-11-29T16:14:00.946Z,2.05
2022-11-29T16:16:28.807Z,2.45
2022-11-29T16:19:07.465Z,1.65
2022-11-29T16:21:34.077Z,1.85
2022-11-29T16:24:12.614Z,1.75
2022-11-29T16:26:45.516Z,1.92
2022-11-29T16:29:24.548Z,2.17
2022-11-29T16:31:52.087Z,2.20
2022-11-29T16:34:26.865Z,1.60
2022-11-29T16:37:18.541Z,1.80
2022-11-29T16:39:48.182Z,1.73
2022-11-29T16:42:29.987Z,1.88
2022-11-29T16:47:31.772Z,1.75
2022-11-29T16:50:01.460Z,1.98
2022-11-29T16:52:33.038Z,2.13
2022-11-29T16:54:59.869Z,2.17
2022-11-29T16:57:28.762Z,1.80
2022-11-29T16:59:55.355Z,2.00
2022-11-29T17:02:21.970Z,2.63
2022-11-29T17:04:51.529Z,2.30
2022-11-29T17:07:26.092Z,2.55
2022-11-29T17:09:52.927Z,2.35
2022-11-29T17:12:19.581Z,1.92
2022-11-29T17:14:46.357Z,2.60
2022-11-29T17:17:17.336Z,3.08
2022-11-29T17:19:44.319Z,3.55
2022-11-29T17:22:14.130Z,4.25
2022-11-29T17:24:44.947Z,4.18
2022-11-29T17:27:14.409Z,4.82
2022-11-29T17:29:40.945Z,4.78
2022-11-29T17:32:07.549Z,4.53
2022-11-29T17:34:34.574Z,5.18
2022-11-29T17:39:47.270Z,5.20
2022-11-29T17:42:14.093Z,5.07
2022-11-29T17:44:40.932Z,5.80
2022-11-29T17:47:07.505Z,7.20
2022-11-29T17:49:34.062Z,7.18
2022-11-29T17:52:00.646Z,6.60
2022-11-29T17:54:27.221Z,5.57
2022-11-29T17:56:53.802Z,6.25
2022-11-29T17:59:20.534Z,7.47
2022-11-29T18:01:47.634Z,7.03
2022-11-29T18:04:15.111Z,6.25
2022-11-29T18:06:42.051Z,6.53
2022-11-29T18:09:11.084Z,6.20
2022-11-29T18:11:48.772Z,6.30
2022-11-29T18:14:19.079Z,6.38
2022-11-29T18:16:45.917Z,6.43
2022-11-29T18:19:15.133Z,6.38
2022-11-29T18:21:42.024Z,7.20
2022-11-29T18:24:09.236Z,6.38
2022-11-29T18:26:37.577Z,6.30
2022-11-29T18:29:05.474Z,6.78
2022-11-29T18:31:34.604Z,4.90
2022-11-29T18:34:03.086Z,6.30
2022-11-29T18:36:32.386Z,6.40
2022-11-29T18:39:06.549Z,7.20
2022-11-29T18:41:33.390Z,6.65
2022-11-29T18:44:06.778Z,6.95
2022-11-29T18:46:36.486Z,6.70
2022-11-29T18:49:05.665Z,6.50
2022-11-29T18:51:32.990Z,7.72
2022-11-29T18:53:59.761Z,6.75
2022-11-29T18:56:29.053Z,6.43
2022-11-29T18:59:07.907Z,7.65
2022-11-29T19:01:40.995Z,8.35
2022-11-29T19:04:09.996Z,7.43
2022-11-29T19:06:39.982Z,8.45
2022-11-29T19:09:11.378Z,9.43
2022-11-29T19:11:38.500Z,7.50
2022-11-29T19:14:11.245Z,7.95
2022-11-29T19:16:39.569Z,7.00
2022-11-29T19:19:06.642Z,6.85
2022-11-29T19:21:34.565Z,6.72
2022-11-29T19:24:07.592Z,7.68
2022-11-29T19:26:37.158Z,7.97
2022-11-29T19:29:03.748Z,8.35
2022-11-29T19:31:30.591Z,8.85
2022-11-29T19:33:57.742Z,8.20
2022-11-29T19:36:27.120Z,9.15
2022-11-29T19:38:54.563Z,8.82
2022-11-29T19:41:25.643Z,8.88
2022-11-29T19:43:52.846Z,7.63
2022-11-29T19:46:25.069Z,8.57
2022-11-29T19:48:53.304Z,9.40
2022-11-29T19:51:20.843Z,9.45
2022-11-29T19:53:51.206Z,9.82
2022-11-29T19:56:17.840Z,9.38
2022-11-29T19:58:44.470Z,9.75
2022-11-29T20:01:16.523Z,8.82
2022-11-29T20:03:43.433Z,10.27
2022-11-29T20:06:10.924Z,11.43
2022-11-29T20:08:38.259Z,10.95
2022-11-29T20:11:12.663Z,10.48
2022-11-29T20:13:40.893Z,11.00
2022-11-29T20:16:10.627Z,11.02
2022-11-29T20:18:39.871Z,11.85
2022-11-29T20:21:08.351Z,12.18
2022-11-29T20:23:34.985Z,11.18
2022-11-29T20:26:01.761Z,11.38
2022-11-29T20:28:28.539Z,11.50
2022-11-29T20:30:56.633Z,13.07
2022-11-29T20:33:25.226Z,11.02
2022-11-29T20:36:03.624Z,10.73
2022-11-29T20:38:59.371Z,11.75
2022-11-29T20:41:41.485Z,11.38
2022-11-29T20:44:14.065Z,10.50
2022-11-29T20:46:40.834Z,10.52
2022-11-29T20:49:08.342Z,12.00
2022-11-29T20:51:43.312Z,10.95
2022-11-29T20:54:11.871Z,10.52
2022-11-29T20:56:38.422Z,10.85
2022-11-29T20:59:05.027Z,11.18
2022-11-29T21:01:31.620Z,13.38
2022-11-29T21:03:58.295Z,11.77
2022-11-29T21:06:24.932Z,11.77
2022-11-29T21:08:53.833Z,12.23
2022-11-29T21:11:20.907Z,11.52
2022-11-29T21:13:47.890Z,11.82
2022-11-29T21:16:14.909Z,11.75
2022-11-29T21:18:41.890Z,11.27
2022-11-29T21:21:32.827Z,9.60
2022-11-29T21:23:59.348Z,9.50
2022-11-29T21:26:41.801Z,11.25
2022-11-29T21:29:35.434Z,10.43
2022-11-29T21:32:02.936Z,10.02
2022-11-29T21:34:29.803Z,11.10
2022-11-29T21:36:59.168Z,9.75
2022-11-29T21:39:33.731Z,9.57
2022-11-29T21:42:00.341Z,10.82
2022-11-29T21:44:26.893Z,10.23
2022-11-29T21:46:54.294Z,11.32
2022-11-29T21:49:20.922Z,11.02
2022-11-29T21:51:47.470Z,11.27
2022-11-29T21:54:14.022Z,10.50
2022-11-29T21:56:40.564Z,10.30
2022-11-29T21:59:07.157Z,10.80
2022-11-29T22:01:33.943Z,10.82
2022-11-29T22:04:00.955Z,10.18
2022-11-29T22:06:29.207Z,11.10
2022-11-29T22:08:59.909Z,10.45
2022-11-29T22:11:34.083Z,11.73
2022-11-29T22:14:15.586Z,9.88
2022-11-29T22:16:52.405Z,11.02
2022-11-29T22:19:21.682Z,11.02
2022-11-29T22:21:50.586Z,10.48
2022-11-29T22:24:19.309Z,11.63
2022-11-29T22:26:46.546Z,10.25
2022-11-29T22:29:14.276Z,10.13
2022-11-29T22:31:43.049Z,10.70
2022-11-29T22:34:09.713Z,10.30
2022-11-29T22:36:37.821Z,11.27
2022-11-29T22:39:05.879Z,10.93
2022-11-29T22:41:33.969Z,11.68
2022-11-29T22:44:00.512Z,11.18
2022-11-29T22:46:28.577Z,10.45
2022-11-29T22:48:56.847Z,10.10
2022-11-29T22:51:25.859Z,10.93
2022-11-29T22:53:57.225Z,10.30
2022-11-29T22:56:26.795Z,10.35
2022-11-29T22:58:53.512Z,10.60
2022-11-29T23:01:25.015Z,11.77
2022-11-29T23:03:54.614Z,11.57
2022-11-29T23:06:24.169Z,12.95
2022-11-29T23:08:52.922Z,12.13
2022-11-29T23:11:22.197Z,12.05
2022-11-29T23:13:49.079Z,12.98
2022-11-29T23:16:19.109Z,10.77
2022-11-29T23:18:46.291Z,11.18
2022-11-29T23:21:12.789Z,10.85
2022-11-29T23:23:39.874Z,10.43
2022-11-29T23:26:07.772Z,10.68
2022-11-29T23:28:35.320Z,10.32
2022-11-29T23:31:02.033Z,11.52
2022-11-29T23:33:28.725Z,10.23
2022-11-29T23:36:03.325Z,10.45
2022-11-29T23:38:30.244Z,10.52
2022-11-29T23:40:56.896Z,9.80
2022-11-29T23:43:23.804Z,9.73
2022-11-29T23:45:50.680Z,10.57
2022-11-29T23:48:17.494Z,10.25
2022-11-29T23:50:44.140Z,8.65
2022-11-29T23:53:15.344Z,9.82
2022-11-29T23:55:42.648Z,10.52
2022-11-29T23:58:10.769Z,9.98
